sensor_id;sensor_type;location;lat;lon;timestamp;temperature;humidity
71155;DHT22;59375;53.216;5.728;2023-03-12T00:01:09;1.50;99.90
71155;DHT22;59375;53.216;5.728;2023-03-12T00:03:34;1.50;99.90
71155;DHT22;59375;53.216;5.728;2023-03-12T00:06:01;1.50;99.90
71155;DHT22;59375;53.216;5.728;2023-03-12T00:08:27;1.50;99.90
71155;DHT22;59375;53.216;5.728;2023-03-12T00:10:52;1.40;99.90
71155;DHT22;59375;53.216;5.728;2023-03-12T00:13:17;1.30;99.90
71155;DHT22;59375;53.216;5.728;2023-03-12T00:15:43;1.30;99.90
71155;DHT22;59375;53.216;5.728;2023-03-12T00:18:08;1.10;99.90
71155;DHT22;59375;53.216;5.728;2023-03-12T00:20:34;1.00;99.90
71155;DHT22;59375;53.216;5.728;2023-03-12T00:22:59;1.00;99.90
71155;DHT22;59375;53.216;5.728;2023-03-12T00:25:25;1.00;99.90
71155;DHT22;59375;53.216;5.728;2023-03-12T00:27:50;0.90;99.90
71155;DHT22;59375;53.216;5.728;2023-03-12T00:30:16;0.90;99.90
71155;DHT22;59375;53.216;5.728;2023-03-12T00:32:41;0.90;99.90
71155;DHT22;59375;53.216;5.728;2023-03-12T00:35:07;1.00;99.90
71155;DHT22;59375;53.216;5.728;2023-03-12T00:37:32;1.00;99.90
71155;DHT22;59375;53.216;5.728;2023-03-12T00:39:58;1.00;99.90
71155;DHT22;59375;53.216;5.728;2023-03-12T00:42:26;1.00;99.90
71155;DHT22;59375;53.216;5.728;2023-03-12T00:44:51;1.00;99.90
71155;DHT22;59375;53.216;5.728;2023-03-12T00:47:16;1.00;99.90
71155;DHT22;59375;53.216;5.728;2023-03-12T00:49:42;1.10;99.90
71155;DHT22;59375;53.216;5.728;2023-03-12T00:52:07;1.10;99.90
71155;DHT22;59375;53.216;5.728;2023-03-12T00:54:33;1.10;99.90
71155;DHT22;59375;53.216;5.728;2023-03-12T00:56:58;1.10;99.90
71155;DHT22;59375;53.216;5.728;2023-03-12T00:59:24;1.00;99.90
71155;DHT22;59375;53.216;5.728;2023-03-12T01:01:49;1.10;99.90
71155;DHT22;59375;53.216;5.728;2023-03-12T01:04:15;1.10;99.90
71155;DHT22;59375;53.216;5.728;2023-03-12T01:06:41;1.00;99.90
71155;DHT22;59375;53.216;5.728;2023-03-12T01:09:07;0.90;99.90
71155;DHT22;59375;53.216;5.728;2023-03-12T01:11:33;0.90;99.90
71155;DHT22;59375;53.216;5.728;2023-03-12T01:14:00;0.90;99.90
71155;DHT22;59375;53.216;5.728;2023-03-12T01:16:26;0.90;99.90
71155;DHT22;59375;53.216;5.728;2023-03-12T01:18:57;0.90;99.90
71155;DHT22;59375;53.216;5.728;2023-03-12T01:21:23;1.00;99.90
71155;DHT22;59375;53.216;5.728;2023-03-12T01:23:49;0.90;99.90
71155;DHT22;59375;53.216;5.728;2023-03-12T01:26:14;1.00;99.90
71155;DHT22;59375;53.216;5.728;2023-03-12T01:28:40;1.00;99.90
71155;DHT22;59375;53.216;5.728;2023-03-12T01:31:09;1.00;99.90
71155;DHT22;59375;53.216;5.728;2023-03-12T01:33:35;1.00;99.90
71155;DHT22;59375;53.216;5.728;2023-03-12T01:36:00;1.00;99.90
71155;DHT22;59375;53.216;5.728;2023-03-12T01:38:26;1.00;99.90
71155;DHT22;59375;53.216;5.728;2023-03-12T01:40:51;1.00;99.90
71155;DHT22;59375;53.216;5.728;2023-03-12T01:43:24;1.00;99.90
71155;DHT22;59375;53.216;5.728;2023-03-12T01:48:26;1.00;99.90
71155;DHT22;59375;53.216;5.728;2023-03-12T01:50:52;1.00;99.90
71155;DHT22;59375;53.216;5.728;2023-03-12T01:53:17;1.00;99.90
71155;DHT22;59375;53.216;5.728;2023-03-12T01:55:43;1.00;99.90
71155;DHT22;59375;53.216;5.728;2023-03-12T01:58:08;1.00;99.90
71155;DHT22;59375;53.216;5.728;2023-03-12T02:00:34;1.00;99.90
71155;DHT22;59375;53.216;5.728;2023-03-12T02:03:01;1.00;99.90
71155;DHT22;59375;53.216;5.728;2023-03-12T02:05:41;1.00;99.90
71155;DHT22;59375;53.216;5.728;2023-03-12T02:08:10;1.00;99.90
71155;DHT22;59375;53.216;5.728;2023-03-12T02:10:35;1.00;99.90
71155;DHT22;59375;53.216;5.728;2023-03-12T02:13:01;1.10;99.90
71155;DHT22;59375;53.216;5.728;2023-03-12T02:15:26;1.10;99.90
71155;DHT22;59375;53.216;5.728;2023-03-12T02:17:52;1.10;99.90
71155;DHT22;59375;53.216;5.728;2023-03-12T02:20:22;1.10;99.90
71155;DHT22;59375;53.216;5.728;2023-03-12T02:22:55;1.20;99.90
71155;DHT22;59375;53.216;5.728;2023-03-12T02:25:25;1.20;99.90
71155;DHT22;59375;53.216;5.728;2023-03-12T02:27:52;1.20;99.90
71155;DHT22;59375;53.216;5.728;2023-03-12T02:30:18;1.20;99.90
71155;DHT22;59375;53.216;5.728;2023-03-12T02:32:44;1.20;99.90
71155;DHT22;59375;53.216;5.728;2023-03-12T02:35:10;1.20;99.90
71155;DHT22;59375;53.216;5.728;2023-03-12T02:37:45;1.20;99.90
71155;DHT22;59375;53.216;5.728;2023-03-12T02:40:12;1.20;99.90
71155;DHT22;59375;53.216;5.728;2023-03-12T02:42:39;1.20;99.90
71155;DHT22;59375;53.216;5.728;2023-03-12T02:45:05;1.20;99.90
71155;DHT22;59375;53.216;5.728;2023-03-12T02:47:30;1.20;99.90
71155;DHT22;59375;53.216;5.728;2023-03-12T02:49:56;1.20;99.90
71155;DHT22;59375;53.216;5.728;2023-03-12T02:52:21;1.20;99.90
71155;DHT22;59375;53.216;5.728;2023-03-12T02:54:47;1.20;99.90
71155;DHT22;59375;53.216;5.728;2023-03-12T02:57:12;1.20;99.90
71155;DHT22;59375;53.216;5.728;2023-03-12T02:59:38;1.20;99.90
71155;DHT22;59375;53.216;5.728;2023-03-12T03:02:03;1.20;99.90
71155;DHT22;59375;53.216;5.728;2023-03-12T03:04:29;1.20;99.90
71155;DHT22;59375;53.216;5.728;2023-03-12T03:06:55;1.30;99.90
71155;DHT22;59375;53.216;5.728;2023-03-12T03:09:21;1.30;99.90
71155;DHT22;59375;53.216;5.728;2023-03-12T03:11:47;1.30;99.90
71155;DHT22;59375;53.216;5.728;2023-03-12T03:14:13;1.40;99.90
71155;DHT22;59375;53.216;5.728;2023-03-12T03:16:39;1.40;99.90
71155;DHT22;59375;53.216;5.728;2023-03-12T03:19:04;1.40;99.90
71155;DHT22;59375;53.216;5.728;2023-03-12T03:21:30;1.40;99.90
71155;DHT22;59375;53.216;5.728;2023-03-12T03:23:55;1.40;99.90
71155;DHT22;59375;53.216;5.728;2023-03-12T03:26:21;1.50;99.90
71155;DHT22;59375;53.216;5.728;2023-03-12T03:28:47;1.50;99.90
71155;DHT22;59375;53.216;5.728;2023-03-12T03:31:13;1.50;99.90
71155;DHT22;59375;53.216;5.728;2023-03-12T03:33:39;1.50;99.90
71155;DHT22;59375;53.216;5.728;2023-03-12T03:36:05;1.50;99.90
71155;DHT22;59375;53.216;5.728;2023-03-12T03:38:31;1.50;99.90
71155;DHT22;59375;53.216;5.728;2023-03-12T03:40:57;1.50;99.90
71155;DHT22;59375;53.216;5.728;2023-03-12T03:43:23;1.50;99.90
71155;DHT22;59375;53.216;5.728;2023-03-12T03:45:55;1.50;99.90
71155;DHT22;59375;53.216;5.728;2023-03-12T03:48:20;1.60;99.90
71155;DHT22;59375;53.216;5.728;2023-03-12T03:50:46;1.60;99.90
71155;DHT22;59375;53.216;5.728;2023-03-12T03:53:12;1.60;99.90
71155;DHT22;59375;53.216;5.728;2023-03-12T03:55:38;1.60;99.90
71155;DHT22;59375;53.216;5.728;2023-03-12T03:58:04;1.60;99.90
71155;DHT22;59375;53.216;5.728;2023-03-12T04:00:29;1.60;99.90
71155;DHT22;59375;53.216;5.728;2023-03-12T04:02:55;1.60;99.90
71155;DHT22;59375;53.216;5.728;2023-03-12T04:05:20;1.60;99.90
71155;DHT22;59375;53.216;5.728;2023-03-12T04:07:46;1.60;99.90
71155;DHT22;59375;53.216;5.728;2023-03-12T04:10:12;1.60;99.90
71155;DHT22;59375;53.216;5.728;2023-03-12T04:12:37;1.60;99.90
71155;DHT22;59375;53.216;5.728;2023-03-12T04:15:03;1.60;99.90
71155;DHT22;59375;53.216;5.728;2023-03-12T04:17:29;1.60;99.90
71155;DHT22;59375;53.216;5.728;2023-03-12T04:19:54;1.60;99.90
71155;DHT22;59375;53.216;5.728;2023-03-12T04:22:20;1.60;99.90
71155;DHT22;59375;53.216;5.728;2023-03-12T04:24:45;1.60;99.90
71155;DHT22;59375;53.216;5.728;2023-03-12T04:27:11;1.60;99.90
71155;DHT22;59375;53.216;5.728;2023-03-12T04:29:36;1.60;99.90
71155;DHT22;59375;53.216;5.728;2023-03-12T04:32:03;1.60;99.90
71155;DHT22;59375;53.216;5.728;2023-03-12T04:34:29;1.60;99.90
71155;DHT22;59375;53.216;5.728;2023-03-12T04:36:55;1.60;99.90
71155;DHT22;59375;53.216;5.728;2023-03-12T04:39:20;1.60;99.90
71155;DHT22;59375;53.216;5.728;2023-03-12T04:41:46;1.60;99.90
71155;DHT22;59375;53.216;5.728;2023-03-12T04:44:11;1.60;99.90
71155;DHT22;59375;53.216;5.728;2023-03-12T04:46:37;1.60;99.90
71155;DHT22;59375;53.216;5.728;2023-03-12T04:49:03;1.60;99.90
71155;DHT22;59375;53.216;5.728;2023-03-12T04:51:29;1.60;99.90
71155;DHT22;59375;53.216;5.728;2023-03-12T04:53:56;1.50;99.90
71155;DHT22;59375;53.216;5.728;2023-03-12T04:56:21;1.50;99.90
71155;DHT22;59375;53.216;5.728;2023-03-12T04:58:47;1.50;99.90
71155;DHT22;59375;53.216;5.728;2023-03-12T05:01:24;1.50;99.90
71155;DHT22;59375;53.216;5.728;2023-03-12T05:03:50;1.50;99.90
71155;DHT22;59375;53.216;5.728;2023-03-12T05:06:15;1.50;99.90
71155;DHT22;59375;53.216;5.728;2023-03-12T05:08:41;1.50;99.90
71155;DHT22;59375;53.216;5.728;2023-03-12T05:11:06;1.50;99.90
71155;DHT22;59375;53.216;5.728;2023-03-12T05:13:32;1.40;99.90
71155;DHT22;59375;53.216;5.728;2023-03-12T05:15:57;1.40;99.90
71155;DHT22;59375;53.216;5.728;2023-03-12T05:18:23;1.40;99.90
71155;DHT22;59375;53.216;5.728;2023-03-12T05:21:00;1.40;99.90
71155;DHT22;59375;53.216;5.728;2023-03-12T05:23:26;1.40;99.90
71155;DHT22;59375;53.216;5.728;2023-03-12T05:25:51;1.40;99.90
71155;DHT22;59375;53.216;5.728;2023-03-12T05:28:17;1.50;99.90
71155;DHT22;59375;53.216;5.728;2023-03-12T05:30:44;1.40;99.90
71155;DHT22;59375;53.216;5.728;2023-03-12T05:33:11;1.40;99.90
71155;DHT22;59375;53.216;5.728;2023-03-12T05:35:36;1.40;99.90
71155;DHT22;59375;53.216;5.728;2023-03-12T05:38:02;1.40;99.90
71155;DHT22;59375;53.216;5.728;2023-03-12T05:40:27;1.50;99.90
71155;DHT22;59375;53.216;5.728;2023-03-12T05:42:52;1.40;99.90
71155;DHT22;59375;53.216;5.728;2023-03-12T05:45:18;1.50;99.90
71155;DHT22;59375;53.216;5.728;2023-03-12T05:47:44;1.40;99.90
71155;DHT22;59375;53.216;5.728;2023-03-12T05:50:09;1.50;99.90
71155;DHT22;59375;53.216;5.728;2023-03-12T05:52:35;1.50;99.90
71155;DHT22;59375;53.216;5.728;2023-03-12T05:55:01;1.50;99.90
71155;DHT22;59375;53.216;5.728;2023-03-12T05:57:26;1.50;99.90
71155;DHT22;59375;53.216;5.728;2023-03-12T05:59:52;1.50;99.90
71155;DHT22;59375;53.216;5.728;2023-03-12T06:02:17;1.50;99.90
71155;DHT22;59375;53.216;5.728;2023-03-12T06:04:43;1.50;99.90
71155;DHT22;59375;53.216;5.728;2023-03-12T06:07:08;1.50;99.90
71155;DHT22;59375;53.216;5.728;2023-03-12T06:09:34;1.60;99.90
71155;DHT22;59375;53.216;5.728;2023-03-12T06:12:00;1.60;99.90
71155;DHT22;59375;53.216;5.728;2023-03-12T06:14:25;1.50;99.90
71155;DHT22;59375;53.216;5.728;2023-03-12T06:16:51;1.50;99.90
71155;DHT22;59375;53.216;5.728;2023-03-12T06:19:16;1.60;99.90
71155;DHT22;59375;53.216;5.728;2023-03-12T06:21:42;1.60;99.90
71155;DHT22;59375;53.216;5.728;2023-03-12T06:24:08;1.50;99.90
71155;DHT22;59375;53.216;5.728;2023-03-12T06:26:33;1.60;99.90
71155;DHT22;59375;53.216;5.728;2023-03-12T06:28:59;1.50;99.90
71155;DHT22;59375;53.216;5.728;2023-03-12T06:31:24;1.50;99.90
71155;DHT22;59375;53.216;5.728;2023-03-12T06:33:50;1.50;99.90
71155;DHT22;59375;53.216;5.728;2023-03-12T06:36:15;1.50;99.90
71155;DHT22;59375;53.216;5.728;2023-03-12T06:38:41;1.50;99.90
71155;DHT22;59375;53.216;5.728;2023-03-12T06:43:32;1.50;99.90
71155;DHT22;59375;53.216;5.728;2023-03-12T06:45:58;1.50;99.90
71155;DHT22;59375;53.216;5.728;2023-03-12T06:48:24;1.50;99.90
71155;DHT22;59375;53.216;5.728;2023-03-12T06:50:50;1.60;99.90
71155;DHT22;59375;53.216;5.728;2023-03-12T06:53:16;1.60;99.90
71155;DHT22;59375;53.216;5.728;2023-03-12T06:55:42;1.60;99.90
71155;DHT22;59375;53.216;5.728;2023-03-12T06:58:08;1.60;99.90
71155;DHT22;59375;53.216;5.728;2023-03-12T07:00:33;1.50;99.90
71155;DHT22;59375;53.216;5.728;2023-03-12T07:02:59;1.50;99.90
71155;DHT22;59375;53.216;5.728;2023-03-12T07:05:24;1.40;99.90
71155;DHT22;59375;53.216;5.728;2023-03-12T07:07:50;1.40;99.90
71155;DHT22;59375;53.216;5.728;2023-03-12T07:10:16;1.40;99.90
71155;DHT22;59375;53.216;5.728;2023-03-12T07:12:42;1.40;99.90
71155;DHT22;59375;53.216;5.728;2023-03-12T07:15:08;1.40;99.90
71155;DHT22;59375;53.216;5.728;2023-03-12T07:17:33;1.30;99.90
71155;DHT22;59375;53.216;5.728;2023-03-12T07:19:59;1.30;99.90
71155;DHT22;59375;53.216;5.728;2023-03-12T07:22:24;1.30;99.90
71155;DHT22;59375;53.216;5.728;2023-03-12T07:24:50;1.30;99.90
71155;DHT22;59375;53.216;5.728;2023-03-12T07:27:16;1.30;99.90
71155;DHT22;59375;53.216;5.728;2023-03-12T07:29:42;1.30;99.90
71155;DHT22;59375;53.216;5.728;2023-03-12T07:32:07;1.30;99.90
71155;DHT22;59375;53.216;5.728;2023-03-12T07:34:33;1.30;99.90
71155;DHT22;59375;53.216;5.728;2023-03-12T07:36:58;1.30;99.90
71155;DHT22;59375;53.216;5.728;2023-03-12T07:39:24;1.30;99.90
71155;DHT22;59375;53.216;5.728;2023-03-12T07:41:49;1.30;99.90
71155;DHT22;59375;53.216;5.728;2023-03-12T07:44:15;1.30;99.90
71155;DHT22;59375;53.216;5.728;2023-03-12T07:46:40;1.30;99.90
71155;DHT22;59375;53.216;5.728;2023-03-12T07:49:06;1.30;99.90
71155;DHT22;59375;53.216;5.728;2023-03-12T07:51:31;1.30;99.90
71155;DHT22;59375;53.216;5.728;2023-03-12T07:53:57;1.30;99.90
71155;DHT22;59375;53.216;5.728;2023-03-12T07:56:22;1.30;99.90
71155;DHT22;59375;53.216;5.728;2023-03-12T07:58:48;1.30;99.90
71155;DHT22;59375;53.216;5.728;2023-03-12T08:01:13;1.30;99.90
71155;DHT22;59375;53.216;5.728;2023-03-12T08:03:39;1.30;99.90
71155;DHT22;59375;53.216;5.728;2023-03-12T08:06:04;1.40;99.90
71155;DHT22;59375;53.216;5.728;2023-03-12T08:08:30;1.30;99.90
71155;DHT22;59375;53.216;5.728;2023-03-12T08:10:56;1.30;99.90
71155;DHT22;59375;53.216;5.728;2023-03-12T08:13:22;1.30;99.90
71155;DHT22;59375;53.216;5.728;2023-03-12T08:15:49;1.30;99.90
71155;DHT22;59375;53.216;5.728;2023-03-12T08:18:14;1.30;99.90
71155;DHT22;59375;53.216;5.728;2023-03-12T08:20:40;1.40;99.90
71155;DHT22;59375;53.216;5.728;2023-03-12T08:23:05;1.40;99.90
71155;DHT22;59375;53.216;5.728;2023-03-12T08:25:31;1.40;99.90
71155;DHT22;59375;53.216;5.728;2023-03-12T08:27:56;1.40;99.90
71155;DHT22;59375;53.216;5.728;2023-03-12T08:30:22;1.50;99.90
71155;DHT22;59375;53.216;5.728;2023-03-12T08:32:47;1.50;99.90
71155;DHT22;59375;53.216;5.728;2023-03-12T08:35:13;1.50;99.90
71155;DHT22;59375;53.216;5.728;2023-03-12T08:37:38;1.50;99.90
71155;DHT22;59375;53.216;5.728;2023-03-12T08:40:05;1.50;99.90
71155;DHT22;59375;53.216;5.728;2023-03-12T08:42:38;1.60;99.90
71155;DHT22;59375;53.216;5.728;2023-03-12T08:45:04;1.50;99.90
71155;DHT22;59375;53.216;5.728;2023-03-12T08:47:29;1.60;99.90
71155;DHT22;59375;53.216;5.728;2023-03-12T08:49:55;1.60;99.90
71155;DHT22;59375;53.216;5.728;2023-03-12T08:52:20;1.60;99.90
71155;DHT22;59375;53.216;5.728;2023-03-12T08:54:46;1.70;99.90
71155;DHT22;59375;53.216;5.728;2023-03-12T08:57:11;1.70;99.90
71155;DHT22;59375;53.216;5.728;2023-03-12T08:59:37;1.70;99.90
71155;DHT22;59375;53.216;5.728;2023-03-12T09:02:02;1.70;99.90
71155;DHT22;59375;53.216;5.728;2023-03-12T09:04:29;1.70;99.90
71155;DHT22;59375;53.216;5.728;2023-03-12T09:06:54;1.80;99.90
71155;DHT22;59375;53.216;5.728;2023-03-12T09:09:20;1.80;99.90
71155;DHT22;59375;53.216;5.728;2023-03-12T09:11:45;1.80;99.90
71155;DHT22;59375;53.216;5.728;2023-03-12T09:14:11;1.90;99.90
71155;DHT22;59375;53.216;5.728;2023-03-12T09:16:36;1.90;99.90
71155;DHT22;59375;53.216;5.728;2023-03-12T09:19:02;1.90;99.90
71155;DHT22;59375;53.216;5.728;2023-03-12T09:21:27;2.00;99.90
71155;DHT22;59375;53.216;5.728;2023-03-12T09:23:53;2.00;99.90
71155;DHT22;59375;53.216;5.728;2023-03-12T09:26:19;2.00;99.90
71155;DHT22;59375;53.216;5.728;2023-03-12T09:28:45;2.00;99.90
71155;DHT22;59375;53.216;5.728;2023-03-12T09:31:10;2.10;99.90
71155;DHT22;59375;53.216;5.728;2023-03-12T09:33:36;2.10;99.90
71155;DHT22;59375;53.216;5.728;2023-03-12T09:36:02;2.10;99.90
71155;DHT22;59375;53.216;5.728;2023-03-12T09:38:28;2.10;99.90
71155;DHT22;59375;53.216;5.728;2023-03-12T09:40:56;2.20;99.90
71155;DHT22;59375;53.216;5.728;2023-03-12T09:43:26;2.20;99.90
71155;DHT22;59375;53.216;5.728;2023-03-12T09:45:52;2.30;99.90
71155;DHT22;59375;53.216;5.728;2023-03-12T09:48:27;2.30;99.90
71155;DHT22;59375;53.216;5.728;2023-03-12T09:50:55;2.40;99.90
71155;DHT22;59375;53.216;5.728;2023-03-12T09:55:54;2.40;99.90
71155;DHT22;59375;53.216;5.728;2023-03-12T09:58:23;2.50;99.90
71155;DHT22;59375;53.216;5.728;2023-03-12T10:00:50;2.50;99.90
71155;DHT22;59375;53.216;5.728;2023-03-12T10:14:15;2.70;99.90
71155;DHT22;59375;53.216;5.728;2023-03-12T10:16:33;2.80;99.90
71155;DHT22;59375;53.216;5.728;2023-03-12T10:21:52;2.90;99.90
71155;DHT22;59375;53.216;5.728;2023-03-12T10:24:37;3.00;99.90
71155;DHT22;59375;53.216;5.728;2023-03-12T10:27:05;3.00;99.90
71155;DHT22;59375;53.216;5.728;2023-03-12T10:29:35;3.10;99.90
71155;DHT22;59375;53.216;5.728;2023-03-12T10:32:04;3.10;99.90
71155;DHT22;59375;53.216;5.728;2023-03-12T10:34:31;3.20;99.90
71155;DHT22;59375;53.216;5.728;2023-03-12T10:37:12;3.30;99.90
71155;DHT22;59375;53.216;5.728;2023-03-12T10:39:38;3.40;99.90
71155;DHT22;59375;53.216;5.728;2023-03-12T10:42:09;3.50;99.90
71155;DHT22;59375;53.216;5.728;2023-03-12T10:44:36;3.60;99.90
71155;DHT22;59375;53.216;5.728;2023-03-12T10:49:46;3.80;99.90
71155;DHT22;59375;53.216;5.728;2023-03-12T10:52:15;3.80;99.90
71155;DHT22;59375;53.216;5.728;2023-03-12T10:54:42;3.90;99.90
71155;DHT22;59375;53.216;5.728;2023-03-12T10:57:09;4.00;99.90
71155;DHT22;59375;53.216;5.728;2023-03-12T10:59:39;4.10;99.90
71155;DHT22;59375;53.216;5.728;2023-03-12T11:05:18;4.40;99.90
71155;DHT22;59375;53.216;5.728;2023-03-12T11:07:43;4.60;99.90
71155;DHT22;59375;53.216;5.728;2023-03-12T11:12:35;4.90;99.90
71155;DHT22;59375;53.216;5.728;2023-03-12T11:17:45;5.10;99.90
71155;DHT22;59375;53.216;5.728;2023-03-12T11:20:31;5.20;99.90
71155;DHT22;59375;53.216;5.728;2023-03-12T11:22:56;5.30;99.90
71155;DHT22;59375;53.216;5.728;2023-03-12T11:25:23;5.40;99.90
71155;DHT22;59375;53.216;5.728;2023-03-12T11:27:50;5.40;99.90
71155;DHT22;59375;53.216;5.728;2023-03-12T11:30:18;5.50;99.90
71155;DHT22;59375;53.216;5.728;2023-03-12T11:32:46;5.50;99.90
71155;DHT22;59375;53.216;5.728;2023-03-12T11:35:13;5.60;99.90
71155;DHT22;59375;53.216;5.728;2023-03-12T11:37:50;5.60;99.90
71155;DHT22;59375;53.216;5.728;2023-03-12T11:40:20;5.60;99.90
71155;DHT22;59375;53.216;5.728;2023-03-12T11:45:17;5.80;99.90
71155;DHT22;59375;53.216;5.728;2023-03-12T11:55:53;6.20;99.90
71155;DHT22;59375;53.216;5.728;2023-03-12T11:58:26;6.30;99.90
71155;DHT22;59375;53.216;5.728;2023-03-12T12:03:33;6.60;99.90
71155;DHT22;59375;53.216;5.728;2023-03-12T12:06:08;6.80;99.90
71155;DHT22;59375;53.216;5.728;2023-03-12T12:08:46;6.90;99.90
71155;DHT22;59375;53.216;5.728;2023-03-12T12:11:23;7.10;99.90
71155;DHT22;59375;53.216;5.728;2023-03-12T12:22:07;7.70;99.90
71155;DHT22;59375;53.216;5.728;2023-03-12T12:26:58;8.20;99.90
71155;DHT22;59375;53.216;5.728;2023-03-12T12:29:34;8.40;99.90
71155;DHT22;59375;53.216;5.728;2023-03-12T12:32:03;8.60;99.90
71155;DHT22;59375;53.216;5.728;2023-03-12T12:37:20;8.80;99.90
71155;DHT22;59375;53.216;5.728;2023-03-12T12:39:48;8.90;99.90
71155;DHT22;59375;53.216;5.728;2023-03-12T12:42:21;9.10;99.90
71155;DHT22;59375;53.216;5.728;2023-03-12T12:44:48;9.30;99.90
71155;DHT22;59375;53.216;5.728;2023-03-12T12:47:17;9.50;99.90
71155;DHT22;59375;53.216;5.728;2023-03-12T12:49:45;9.80;99.90
71155;DHT22;59375;53.216;5.728;2023-03-12T12:52:12;10.30;99.90
71155;DHT22;59375;53.216;5.728;2023-03-12T13:00:12;11.70;99.90
71155;DHT22;59375;53.216;5.728;2023-03-12T13:02:39;12.00;99.90
71155;DHT22;59375;53.216;5.728;2023-03-12T13:07:46;11.30;99.90
71155;DHT22;59375;53.216;5.728;2023-03-12T13:12:56;10.60;99.90
71155;DHT22;59375;53.216;5.728;2023-03-12T13:20:21;10.00;99.90
71155;DHT22;59375;53.216;5.728;2023-03-12T13:30:55;9.50;99.90
71155;DHT22;59375;53.216;5.728;2023-03-12T13:36:03;9.50;99.90
71155;DHT22;59375;53.216;5.728;2023-03-12T13:38:36;9.50;99.90
71155;DHT22;59375;53.216;5.728;2023-03-12T13:41:03;9.60;99.90
71155;DHT22;59375;53.216;5.728;2023-03-12T13:46:03;10.00;99.90
71155;DHT22;59375;53.216;5.728;2023-03-12T13:48:29;10.30;99.90
71155;DHT22;59375;53.216;5.728;2023-03-12T13:50:56;10.40;99.90
71155;DHT22;59375;53.216;5.728;2023-03-12T13:53:26;10.60;99.90
71155;DHT22;59375;53.216;5.728;2023-03-12T13:56:09;10.90;99.90
71155;DHT22;59375;53.216;5.728;2023-03-12T14:01:14;11.00;99.90
71155;DHT22;59375;53.216;5.728;2023-03-12T14:03:43;11.00;99.90
71155;DHT22;59375;53.216;5.728;2023-03-12T14:06:22;11.30;99.90
71155;DHT22;59375;53.216;5.728;2023-03-12T14:16:43;12.10;99.90
71155;DHT22;59375;53.216;5.728;2023-03-12T14:19:15;12.00;99.90
71155;DHT22;59375;53.216;5.728;2023-03-12T14:21:42;11.80;99.90
71155;DHT22;59375;53.216;5.728;2023-03-12T14:24:19;11.60;99.90
71155;DHT22;59375;53.216;5.728;2023-03-12T14:26:46;11.30;99.90
71155;DHT22;59375;53.216;5.728;2023-03-12T14:29:18;11.20;99.90
71155;DHT22;59375;53.216;5.728;2023-03-12T14:31:44;11.30;99.90
71155;DHT22;59375;53.216;5.728;2023-03-12T14:39:19;11.30;99.90
71155;DHT22;59375;53.216;5.728;2023-03-12T14:41:47;11.30;99.90
71155;DHT22;59375;53.216;5.728;2023-03-12T14:44:20;11.30;99.90
71155;DHT22;59375;53.216;5.728;2023-03-12T14:46:47;11.30;99.90
71155;DHT22;59375;53.216;5.728;2023-03-12T14:49:19;11.30;99.90
71155;DHT22;59375;53.216;5.728;2023-03-12T14:51:44;11.20;99.90
71155;DHT22;59375;53.216;5.728;2023-03-12T14:54:18;11.20;99.90
71155;DHT22;59375;53.216;5.728;2023-03-12T14:56:45;11.20;99.90
71155;DHT22;59375;53.216;5.728;2023-03-12T14:59:24;11.30;99.90
71155;DHT22;59375;53.216;5.728;2023-03-12T15:01:57;11.20;99.90
71155;DHT22;59375;53.216;5.728;2023-03-12T15:04:23;11.20;99.90
71155;DHT22;59375;53.216;5.728;2023-03-12T15:06:50;11.10;99.90
71155;DHT22;59375;53.216;5.728;2023-03-12T15:09:17;11.10;99.90
71155;DHT22;59375;53.216;5.728;2023-03-12T15:11:43;11.00;99.90
71155;DHT22;59375;53.216;5.728;2023-03-12T15:14:13;10.90;99.90
71155;DHT22;59375;53.216;5.728;2023-03-12T15:16:39;10.80;99.90
71155;DHT22;59375;53.216;5.728;2023-03-12T15:19:05;10.70;99.90
71155;DHT22;59375;53.216;5.728;2023-03-12T15:21:34;10.70;99.90
71155;DHT22;59375;53.216;5.728;2023-03-12T15:23:59;10.60;99.90
71155;DHT22;59375;53.216;5.728;2023-03-12T15:26:26;10.40;99.90
71155;DHT22;59375;53.216;5.728;2023-03-12T15:31:21;10.20;99.90
71155;DHT22;59375;53.216;5.728;2023-03-12T15:33:57;10.20;99.90
71155;DHT22;59375;53.216;5.728;2023-03-12T15:36:24;10.00;99.90
71155;DHT22;59375;53.216;5.728;2023-03-12T15:38:52;9.90;99.90
71155;DHT22;59375;53.216;5.728;2023-03-12T15:41:22;9.70;99.90
71155;DHT22;59375;53.216;5.728;2023-03-12T15:43:50;9.70;99.90
71155;DHT22;59375;53.216;5.728;2023-03-12T15:46:16;9.60;99.90
71155;DHT22;59375;53.216;5.728;2023-03-12T15:48:45;9.50;99.90
71155;DHT22;59375;53.216;5.728;2023-03-12T15:51:12;9.40;99.90
71155;DHT22;59375;53.216;5.728;2023-03-12T15:53:37;9.40;99.90
71155;DHT22;59375;53.216;5.728;2023-03-12T15:56:04;9.30;99.90
71155;DHT22;59375;53.216;5.728;2023-03-12T16:01:09;9.20;99.90
71155;DHT22;59375;53.216;5.728;2023-03-12T16:03:35;9.20;99.90
71155;DHT22;59375;53.216;5.728;2023-03-12T16:06:00;9.20;99.90
71155;DHT22;59375;53.216;5.728;2023-03-12T16:08:30;9.20;99.90
71155;DHT22;59375;53.216;5.728;2023-03-12T16:10:57;9.20;99.90
71155;DHT22;59375;53.216;5.728;2023-03-12T16:13:25;9.20;99.90
71155;DHT22;59375;53.216;5.728;2023-03-12T16:15:52;9.10;99.90
71155;DHT22;59375;53.216;5.728;2023-03-12T16:18:19;9.00;99.90
71155;DHT22;59375;53.216;5.728;2023-03-12T16:20:45;8.90;99.90
71155;DHT22;59375;53.216;5.728;2023-03-12T16:23:11;8.90;99.90
71155;DHT22;59375;53.216;5.728;2023-03-12T16:25:36;8.80;99.90
71155;DHT22;59375;53.216;5.728;2023-03-12T16:28:03;8.70;99.90
71155;DHT22;59375;53.216;5.728;2023-03-12T16:30:30;8.70;99.90
71155;DHT22;59375;53.216;5.728;2023-03-12T16:32:56;8.70;99.90
71155;DHT22;59375;53.216;5.728;2023-03-12T16:35:22;8.60;99.90
71155;DHT22;59375;53.216;5.728;2023-03-12T16:37:48;8.50;99.90
71155;DHT22;59375;53.216;5.728;2023-03-12T16:40:14;8.50;99.90
71155;DHT22;59375;53.216;5.728;2023-03-12T16:42:41;8.40;99.90
71155;DHT22;59375;53.216;5.728;2023-03-12T16:45:08;8.40;99.90
71155;DHT22;59375;53.216;5.728;2023-03-12T16:47:34;8.40;99.90
71155;DHT22;59375;53.216;5.728;2023-03-12T16:50:00;8.40;99.90
71155;DHT22;59375;53.216;5.728;2023-03-12T16:52:25;8.40;99.90
71155;DHT22;59375;53.216;5.728;2023-03-12T16:54:51;8.30;99.90
71155;DHT22;59375;53.216;5.728;2023-03-12T16:57:50;8.30;99.90
71155;DHT22;59375;53.216;5.728;2023-03-12T17:00:11;8.20;99.90
71155;DHT22;59375;53.216;5.728;2023-03-12T17:02:37;8.20;99.90
71155;DHT22;59375;53.216;5.728;2023-03-12T17:05:02;8.20;99.90
71155;DHT22;59375;53.216;5.728;2023-03-12T17:07:28;8.20;99.90
71155;DHT22;59375;53.216;5.728;2023-03-12T17:09:53;8.10;99.90
71155;DHT22;59375;53.216;5.728;2023-03-12T17:12:21;8.10;99.90
71155;DHT22;59375;53.216;5.728;2023-03-12T17:14:49;8.10;99.90
71155;DHT22;59375;53.216;5.728;2023-03-12T17:17:15;8.10;99.90
71155;DHT22;59375;53.216;5.728;2023-03-12T17:19:41;8.00;99.90
71155;DHT22;59375;53.216;5.728;2023-03-12T17:22:06;8.00;99.90
71155;DHT22;59375;53.216;5.728;2023-03-12T17:24:32;8.00;99.90
71155;DHT22;59375;53.216;5.728;2023-03-12T17:26:58;7.90;99.90
71155;DHT22;59375;53.216;5.728;2023-03-12T17:29:24;7.90;99.90
71155;DHT22;59375;53.216;5.728;2023-03-12T17:31:50;7.90;99.90